sensor_id;sensor_type;location;lat;lon;timestamp;temperature;humidity
1359;DHT22;673;48.098;14.422;2023-12-20T00:01:07;-0.20;99.90
1359;DHT22;673;48.098;14.422;2023-12-20T00:03:35;-0.10;99.90
1359;DHT22;673;48.098;14.422;2023-12-20T00:06:02;0.00;99.90
1359;DHT22;673;48.098;14.422;2023-12-20T00:08:29;0.10;99.90
1359;DHT22;673;48.098;14.422;2023-12-20T00:10:56;0.10;99.90
1359;DHT22;673;48.098;14.422;2023-12-20T00:13:23;0.20;99.90
1359;DHT22;673;48.098;14.422;2023-12-20T00:15:50;0.20;99.90
1359;DHT22;673;48.098;14.422;2023-12-20T00:18:17;0.40;99.90
1359;DHT22;673;48.098;14.422;2023-12-20T00:20:46;0.40;99.90
1359;DHT22;673;48.098;14.422;2023-12-20T00:23:12;0.50;99.90
1359;DHT22;673;48.098;14.422;2023-12-20T00:25:40;0.80;99.90
1359;DHT22;673;48.098;14.422;2023-12-20T00:28:07;0.90;99.90
1359;DHT22;673;48.098;14.422;2023-12-20T00:30:33;1.00;99.90
1359;DHT22;673;48.098;14.422;2023-12-20T00:33:01;1.00;99.90
1359;DHT22;673;48.098;14.422;2023-12-20T00:35:28;1.00;99.90
1359;DHT22;673;48.098;14.422;2023-12-20T00:37:58;1.00;99.90
1359;DHT22;673;48.098;14.422;2023-12-20T00:40:25;1.10;99.90
1359;DHT22;673;48.098;14.422;2023-12-20T00:42:52;1.30;99.90
1359;DHT22;673;48.098;14.422;2023-12-20T00:45:20;1.40;99.90
1359;DHT22;673;48.098;14.422;2023-12-20T00:47:46;1.50;99.90
1359;DHT22;673;48.098;14.422;2023-12-20T00:50:14;1.60;99.90
1359;DHT22;673;48.098;14.422;2023-12-20T00:52:41;1.70;99.90
1359;DHT22;673;48.098;14.422;2023-12-20T00:55:09;1.80;99.90
1359;DHT22;673;48.098;14.422;2023-12-20T00:57:36;2.00;99.90
1359;DHT22;673;48.098;14.422;2023-12-20T01:00:04;2.10;99.90
1359;DHT22;673;48.098;14.422;2023-12-20T01:02:31;2.30;99.90
1359;DHT22;673;48.098;14.422;2023-12-20T01:04:58;2.40;99.90
1359;DHT22;673;48.098;14.422;2023-12-20T01:07:25;2.40;99.90
1359;DHT22;673;48.098;14.422;2023-12-20T01:09:52;2.50;99.90
1359;DHT22;673;48.098;14.422;2023-12-20T01:12:20;2.60;99.90
1359;DHT22;673;48.098;14.422;2023-12-20T01:14:47;2.70;99.90
1359;DHT22;673;48.098;14.422;2023-12-20T01:17:14;2.70;99.90
1359;DHT22;673;48.098;14.422;2023-12-20T01:19:41;2.70;99.90
1359;DHT22;673;48.098;14.422;2023-12-20T01:22:08;2.60;99.90
1359;DHT22;673;48.098;14.422;2023-12-20T01:24:35;2.50;99.90
1359;DHT22;673;48.098;14.422;2023-12-20T01:27:02;2.50;99.90
1359;DHT22;673;48.098;14.422;2023-12-20T01:29:31;2.50;99.90
1359;DHT22;673;48.098;14.422;2023-12-20T01:31:58;2.60;99.90
1359;DHT22;673;48.098;14.422;2023-12-20T01:34:25;2.60;99.90
1359;DHT22;673;48.098;14.422;2023-12-20T01:36:52;2.70;99.90
1359;DHT22;673;48.098;14.422;2023-12-20T01:39:19;2.60;99.90
1359;DHT22;673;48.098;14.422;2023-12-20T01:41:46;2.60;99.90
1359;DHT22;673;48.098;14.422;2023-12-20T01:44:13;2.70;99.90
1359;DHT22;673;48.098;14.422;2023-12-20T01:46:41;2.70;99.90
1359;DHT22;673;48.098;14.422;2023-12-20T01:49:08;2.70;99.90
1359;DHT22;673;48.098;14.422;2023-12-20T01:51:36;2.70;99.90
1359;DHT22;673;48.098;14.422;2023-12-20T01:54:04;2.70;99.90
1359;DHT22;673;48.098;14.422;2023-12-20T01:56:31;2.70;99.90
1359;DHT22;673;48.098;14.422;2023-12-20T01:58:59;2.80;99.90
1359;DHT22;673;48.098;14.422;2023-12-20T02:01:27;3.00;99.90
1359;DHT22;673;48.098;14.422;2023-12-20T02:03:56;3.00;99.90
1359;DHT22;673;48.098;14.422;2023-12-20T02:06:24;3.00;99.90
1359;DHT22;673;48.098;14.422;2023-12-20T02:08:53;3.10;99.90
1359;DHT22;673;48.098;14.422;2023-12-20T02:11:21;3.10;99.90
1359;DHT22;673;48.098;14.422;2023-12-20T02:13:47;3.10;99.90
1359;DHT22;673;48.098;14.422;2023-12-20T02:16:14;3.10;99.90
1359;DHT22;673;48.098;14.422;2023-12-20T02:18:42;3.20;99.90
1359;DHT22;673;48.098;14.422;2023-12-20T02:21:11;3.20;99.90
1359;DHT22;673;48.098;14.422;2023-12-20T02:23:39;3.20;99.90
1359;DHT22;673;48.098;14.422;2023-12-20T02:26:06;3.20;99.90
1359;DHT22;673;48.098;14.422;2023-12-20T02:28:33;3.20;99.90
1359;DHT22;673;48.098;14.422;2023-12-20T02:31:01;3.30;99.90
1359;DHT22;673;48.098;14.422;2023-12-20T02:33:28;2.60;99.90
1359;DHT22;673;48.098;14.422;2023-12-20T02:35:55;1.90;99.90
1359;DHT22;673;48.098;14.422;2023-12-20T02:38:22;1.90;99.90
1359;DHT22;673;48.098;14.422;2023-12-20T02:40:50;1.60;99.90
1359;DHT22;673;48.098;14.422;2023-12-20T02:43:17;1.40;99.90
1359;DHT22;673;48.098;14.422;2023-12-20T02:45:44;1.00;99.90
1359;DHT22;673;48.098;14.422;2023-12-20T02:48:11;0.90;99.90
1359;DHT22;673;48.098;14.422;2023-12-20T02:50:38;0.60;99.90
1359;DHT22;673;48.098;14.422;2023-12-20T02:53:05;0.50;99.90
1359;DHT22;673;48.098;14.422;2023-12-20T02:55:32;0.60;99.90
1359;DHT22;673;48.098;14.422;2023-12-20T02:58:00;0.60;99.90
1359;DHT22;673;48.098;14.422;2023-12-20T03:00:27;0.60;99.90
1359;DHT22;673;48.098;14.422;2023-12-20T03:02:54;0.40;99.90
1359;DHT22;673;48.098;14.422;2023-12-20T03:05:21;0.50;99.90
1359;DHT22;673;48.098;14.422;2023-12-20T03:07:48;0.40;99.90
1359;DHT22;673;48.098;14.422;2023-12-20T03:10:15;0.30;99.90
1359;DHT22;673;48.098;14.422;2023-12-20T03:12:42;0.20;99.90
1359;DHT22;673;48.098;14.422;2023-12-20T03:15:11;0.20;99.90
1359;DHT22;673;48.098;14.422;2023-12-20T03:17:38;0.20;99.90
1359;DHT22;673;48.098;14.422;2023-12-20T03:20:06;0.20;99.90
1359;DHT22;673;48.098;14.422;2023-12-20T03:22:33;0.20;99.90
1359;DHT22;673;48.098;14.422;2023-12-20T03:25:00;0.20;99.90
1359;DHT22;673;48.098;14.422;2023-12-20T03:27:27;0.30;99.90
1359;DHT22;673;48.098;14.422;2023-12-20T03:29:54;0.20;99.90
1359;DHT22;673;48.098;14.422;2023-12-20T03:32:23;0.30;99.90
1359;DHT22;673;48.098;14.422;2023-12-20T03:34:50;0.50;99.90
1359;DHT22;673;48.098;14.422;2023-12-20T03:37:16;0.50;99.90
1359;DHT22;673;48.098;14.422;2023-12-20T03:39:43;0.50;99.90
1359;DHT22;673;48.098;14.422;2023-12-20T03:42:10;0.50;99.90
1359;DHT22;673;48.098;14.422;2023-12-20T03:44:38;0.50;99.90
1359;DHT22;673;48.098;14.422;2023-12-20T03:47:05;0.40;99.90
1359;DHT22;673;48.098;14.422;2023-12-20T03:49:34;0.30;99.90
1359;DHT22;673;48.098;14.422;2023-12-20T03:52:03;0.30;99.90
1359;DHT22;673;48.098;14.422;2023-12-20T03:54:30;0.30;99.90
1359;DHT22;673;48.098;14.422;2023-12-20T03:56:57;0.40;99.90
1359;DHT22;673;48.098;14.422;2023-12-20T03:59:23;0.60;99.90
1359;DHT22;673;48.098;14.422;2023-12-20T04:01:50;0.70;99.90
1359;DHT22;673;48.098;14.422;2023-12-20T04:04:17;0.80;99.90
1359;DHT22;673;48.098;14.422;2023-12-20T04:06:46;0.70;99.90
1359;DHT22;673;48.098;14.422;2023-12-20T04:09:13;0.50;99.90
1359;DHT22;673;48.098;14.422;2023-12-20T04:11:40;0.60;99.90
1359;DHT22;673;48.098;14.422;2023-12-20T04:14:07;0.60;99.90
1359;DHT22;673;48.098;14.422;2023-12-20T04:16:34;0.60;99.90
1359;DHT22;673;48.098;14.422;2023-12-20T04:19:01;0.80;99.90
1359;DHT22;673;48.098;14.422;2023-12-20T04:21:29;0.80;99.90
1359;DHT22;673;48.098;14.422;2023-12-20T04:23:57;0.90;99.90
1359;DHT22;673;48.098;14.422;2023-12-20T04:26:24;1.00;99.90
1359;DHT22;673;48.098;14.422;2023-12-20T04:28:51;1.00;99.90
1359;DHT22;673;48.098;14.422;2023-12-20T04:31:18;1.00;99.90
1359;DHT22;673;48.098;14.422;2023-12-20T04:33:45;1.00;99.90
1359;DHT22;673;48.098;14.422;2023-12-20T04:36:12;0.90;99.90
1359;DHT22;673;48.098;14.422;2023-12-20T04:38:39;0.90;99.90
1359;DHT22;673;48.098;14.422;2023-12-20T04:41:07;1.00;99.90
1359;DHT22;673;48.098;14.422;2023-12-20T04:43:34;1.20;99.90
1359;DHT22;673;48.098;14.422;2023-12-20T04:46:01;1.30;99.90
1359;DHT22;673;48.098;14.422;2023-12-20T04:48:28;1.40;99.90
1359;DHT22;673;48.098;14.422;2023-12-20T04:50:55;1.40;99.90
1359;DHT22;673;48.098;14.422;2023-12-20T04:53:22;1.20;99.90
1359;DHT22;673;48.098;14.422;2023-12-20T04:55:49;0.90;99.90
1359;DHT22;673;48.098;14.422;2023-12-20T04:58:17;0.80;99.90
1359;DHT22;673;48.098;14.422;2023-12-20T05:00:44;0.90;99.90
1359;DHT22;673;48.098;14.422;2023-12-20T05:03:11;1.00;99.90
1359;DHT22;673;48.098;14.422;2023-12-20T05:05:39;1.00;99.90
1359;DHT22;673;48.098;14.422;2023-12-20T05:08:06;1.10;99.90
1359;DHT22;673;48.098;14.422;2023-12-20T05:10:33;1.00;99.90
1359;DHT22;673;48.098;14.422;2023-12-20T05:13:00;1.00;99.90
1359;DHT22;673;48.098;14.422;2023-12-20T05:15:29;1.00;99.90
1359;DHT22;673;48.098;14.422;2023-12-20T05:17:56;1.00;99.90
1359;DHT22;673;48.098;14.422;2023-12-20T05:20:23;1.00;99.90
1359;DHT22;673;48.098;14.422;2023-12-20T05:22:50;0.90;99.90
1359;DHT22;673;48.098;14.422;2023-12-20T05:25:17;1.10;99.90
1359;DHT22;673;48.098;14.422;2023-12-20T05:27:44;1.10;99.90
1359;DHT22;673;48.098;14.422;2023-12-20T05:30:12;1.00;99.90
1359;DHT22;673;48.098;14.422;2023-12-20T05:32:40;1.20;99.90
1359;DHT22;673;48.098;14.422;2023-12-20T05:35:07;1.30;99.90
1359;DHT22;673;48.098;14.422;2023-12-20T05:37:34;1.40;99.90
1359;DHT22;673;48.098;14.422;2023-12-20T05:40:01;1.40;99.90
1359;DHT22;673;48.098;14.422;2023-12-20T05:42:29;1.50;99.90
1359;DHT22;673;48.098;14.422;2023-12-20T05:44:56;1.60;99.90
1359;DHT22;673;48.098;14.422;2023-12-20T05:47:23;1.60;99.90
1359;DHT22;673;48.098;14.422;2023-12-20T05:49:52;1.70;99.90
1359;DHT22;673;48.098;14.422;2023-12-20T05:52:19;1.60;99.90
1359;DHT22;673;48.098;14.422;2023-12-20T05:54:45;1.70;99.90
1359;DHT22;673;48.098;14.422;2023-12-20T05:57:12;1.80;99.90
1359;DHT22;673;48.098;14.422;2023-12-20T05:59:39;1.90;99.90
1359;DHT22;673;48.098;14.422;2023-12-20T06:02:06;1.90;99.90
1359;DHT22;673;48.098;14.422;2023-12-20T06:04:33;1.90;99.90
1359;DHT22;673;48.098;14.422;2023-12-20T06:07:02;2.00;99.90
1359;DHT22;673;48.098;14.422;2023-12-20T06:09:30;1.90;99.90
1359;DHT22;673;48.098;14.422;2023-12-20T06:11:57;1.80;99.90
1359;DHT22;673;48.098;14.422;2023-12-20T06:14:23;1.90;99.90
1359;DHT22;673;48.098;14.422;2023-12-20T06:16:51;2.00;99.90
1359;DHT22;673;48.098;14.422;2023-12-20T06:19:18;2.00;99.90
1359;DHT22;673;48.098;14.422;2023-12-20T06:21:45;1.90;99.90
1359;DHT22;673;48.098;14.422;2023-12-20T06:24:13;1.80;99.90
1359;DHT22;673;48.098;14.422;2023-12-20T06:26:40;1.90;99.90
1359;DHT22;673;48.098;14.422;2023-12-20T06:29:07;1.90;99.90
1359;DHT22;673;48.098;14.422;2023-12-20T06:31:34;1.80;99.90
1359;DHT22;673;48.098;14.422;2023-12-20T06:34:01;1.90;99.90
1359;DHT22;673;48.098;14.422;2023-12-20T06:36:29;2.00;99.90
1359;DHT22;673;48.098;14.422;2023-12-20T06:38:56;2.20;99.90
1359;DHT22;673;48.098;14.422;2023-12-20T06:41:25;2.40;99.90
1359;DHT22;673;48.098;14.422;2023-12-20T06:43:51;2.70;99.90
1359;DHT22;673;48.098;14.422;2023-12-20T06:46:19;2.90;99.90
1359;DHT22;673;48.098;14.422;2023-12-20T06:48:46;2.90;99.90
1359;DHT22;673;48.098;14.422;2023-12-20T06:51:14;2.90;99.90
1359;DHT22;673;48.098;14.422;2023-12-20T06:53:41;2.90;99.90
1359;DHT22;673;48.098;14.422;2023-12-20T06:56:10;2.90;99.90
1359;DHT22;673;48.098;14.422;2023-12-20T06:58:39;3.00;99.90
1359;DHT22;673;48.098;14.422;2023-12-20T07:01:11;3.10;99.90
1359;DHT22;673;48.098;14.422;2023-12-20T07:03:38;3.20;99.90
1359;DHT22;673;48.098;14.422;2023-12-20T07:06:05;3.20;99.90
1359;DHT22;673;48.098;14.422;2023-12-20T07:08:31;3.20;99.90
1359;DHT22;673;48.098;14.422;2023-12-20T07:10:58;3.30;99.90
1359;DHT22;673;48.098;14.422;2023-12-20T07:13:25;3.30;99.90
1359;DHT22;673;48.098;14.422;2023-12-20T07:15:54;3.30;99.90
1359;DHT22;673;48.098;14.422;2023-12-20T07:18:21;3.30;99.90
1359;DHT22;673;48.098;14.422;2023-12-20T07:20:48;3.30;99.90
1359;DHT22;673;48.098;14.422;2023-12-20T07:23:15;3.30;99.90
1359;DHT22;673;48.098;14.422;2023-12-20T07:25:42;3.30;99.90
1359;DHT22;673;48.098;14.422;2023-12-20T07:28:09;3.50;99.90
1359;DHT22;673;48.098;14.422;2023-12-20T07:30:36;3.70;99.90
1359;DHT22;673;48.098;14.422;2023-12-20T07:33:05;3.60;99.90
1359;DHT22;673;48.098;14.422;2023-12-20T07:35:34;3.60;99.90
1359;DHT22;673;48.098;14.422;2023-12-20T07:38:01;3.70;99.90
1359;DHT22;673;48.098;14.422;2023-12-20T07:40:28;3.80;99.90
1359;DHT22;673;48.098;14.422;2023-12-20T07:42:55;3.90;99.90
1359;DHT22;673;48.098;14.422;2023-12-20T07:45:22;4.00;99.90
1359;DHT22;673;48.098;14.422;2023-12-20T07:47:49;4.00;99.90
1359;DHT22;673;48.098;14.422;2023-12-20T07:50:17;3.90;99.90
1359;DHT22;673;48.098;14.422;2023-12-20T07:52:44;3.90;99.90
1359;DHT22;673;48.098;14.422;2023-12-20T07:55:11;3.90;99.90
1359;DHT22;673;48.098;14.422;2023-12-20T07:57:38;3.80;99.90
1359;DHT22;673;48.098;14.422;2023-12-20T08:00:06;3.80;99.90
1359;DHT22;673;48.098;14.422;2023-12-20T08:02:33;3.70;99.90
1359;DHT22;673;48.098;14.422;2023-12-20T08:05:00;3.70;99.90
1359;DHT22;673;48.098;14.422;2023-12-20T08:07:29;3.60;99.90
1359;DHT22;673;48.098;14.422;2023-12-20T08:09:55;3.60;99.90
1359;DHT22;673;48.098;14.422;2023-12-20T08:12:23;3.60;99.90
1359;DHT22;673;48.098;14.422;2023-12-20T08:14:53;3.60;99.90
1359;DHT22;673;48.098;14.422;2023-12-20T08:17:20;3.60;99.90
1359;DHT22;673;48.098;14.422;2023-12-20T08:19:48;3.60;99.90
1359;DHT22;673;48.098;14.422;2023-12-20T08:22:15;3.60;99.90
1359;DHT22;673;48.098;14.422;2023-12-20T08:24:43;3.60;99.90
1359;DHT22;673;48.098;14.422;2023-12-20T08:27:09;3.70;99.90
1359;DHT22;673;48.098;14.422;2023-12-20T08:29:36;3.70;99.90
1359;DHT22;673;48.098;14.422;2023-12-20T08:32:04;3.60;99.90
1359;DHT22;673;48.098;14.422;2023-12-20T08:34:31;3.70;99.90
1359;DHT22;673;48.098;14.422;2023-12-20T08:36:58;3.70;99.90
1359;DHT22;673;48.098;14.422;2023-12-20T08:39:25;3.70;99.90
1359;DHT22;673;48.098;14.422;2023-12-20T08:41:53;3.70;99.90
1359;DHT22;673;48.098;14.422;2023-12-20T08:44:20;3.70;99.90
1359;DHT22;673;48.098;14.422;2023-12-20T08:46:48;3.70;99.90
1359;DHT22;673;48.098;14.422;2023-12-20T08:49:15;3.70;99.90
1359;DHT22;673;48.098;14.422;2023-12-20T08:51:42;3.60;99.90
1359;DHT22;673;48.098;14.422;2023-12-20T08:54:09;3.60;99.90
1359;DHT22;673;48.098;14.422;2023-12-20T08:56:38;3.60;99.90
1359;DHT22;673;48.098;14.422;2023-12-20T08:59:07;3.60;99.90
1359;DHT22;673;48.098;14.422;2023-12-20T09:01:35;3.60;99.90
1359;DHT22;673;48.098;14.422;2023-12-20T09:04:01;3.60;99.90
1359;DHT22;673;48.098;14.422;2023-12-20T09:06:28;3.70;99.90
1359;DHT22;673;48.098;14.422;2023-12-20T09:08:55;3.70;99.90
1359;DHT22;673;48.098;14.422;2023-12-20T09:11:22;3.80;99.90
1359;DHT22;673;48.098;14.422;2023-12-20T09:13:49;3.70;99.90
1359;DHT22;673;48.098;14.422;2023-12-20T09:16:18;3.80;99.90
1359;DHT22;673;48.098;14.422;2023-12-20T09:18:44;3.80;99.90
1359;DHT22;673;48.098;14.422;2023-12-20T09:21:11;3.80;99.90
1359;DHT22;673;48.098;14.422;2023-12-20T09:23:39;3.80;99.90
1359;DHT22;673;48.098;14.422;2023-12-20T09:26:06;3.80;99.90
1359;DHT22;673;48.098;14.422;2023-12-20T09:28:33;3.90;99.90
1359;DHT22;673;48.098;14.422;2023-12-20T09:31:03;3.90;99.90
1359;DHT22;673;48.098;14.422;2023-12-20T09:33:32;3.90;99.90
1359;DHT22;673;48.098;14.422;2023-12-20T09:35:59;4.00;99.90
1359;DHT22;673;48.098;14.422;2023-12-20T09:38:26;4.00;99.90
1359;DHT22;673;48.098;14.422;2023-12-20T09:40:54;4.00;99.90
1359;DHT22;673;48.098;14.422;2023-12-20T09:43:24;4.10;99.90
1359;DHT22;673;48.098;14.422;2023-12-20T09:45:53;4.20;99.90
1359;DHT22;673;48.098;14.422;2023-12-20T09:48:20;4.30;99.90
1359;DHT22;673;48.098;14.422;2023-12-20T09:50:49;4.30;99.90
1359;DHT22;673;48.098;14.422;2023-12-20T09:53:16;4.40;99.90
1359;DHT22;673;48.098;14.422;2023-12-20T09:55:44;4.40;99.90
1359;DHT22;673;48.098;14.422;2023-12-20T09:58:11;4.40;99.90
1359;DHT22;673;48.098;14.422;2023-12-20T10:00:38;4.50;99.90
1359;DHT22;673;48.098;14.422;2023-12-20T10:03:07;4.50;99.90
1359;DHT22;673;48.098;14.422;2023-12-20T10:05:35;4.50;99.90
1359;DHT22;673;48.098;14.422;2023-12-20T10:08:04;4.50;99.90
1359;DHT22;673;48.098;14.422;2023-12-20T10:10:31;4.50;99.90
1359;DHT22;673;48.098;14.422;2023-12-20T10:13:02;4.60;99.90
1359;DHT22;673;48.098;14.422;2023-12-20T10:15:29;4.60;99.90
1359;DHT22;673;48.098;14.422;2023-12-20T10:17:57;4.60;99.90
1359;DHT22;673;48.098;14.422;2023-12-20T10:20:24;4.70;99.90
1359;DHT22;673;48.098;14.422;2023-12-20T10:22:52;4.70;99.90
1359;DHT22;673;48.098;14.422;2023-12-20T10:25:21;4.80;99.90
1359;DHT22;673;48.098;14.422;2023-12-20T10:27:49;4.80;99.90
1359;DHT22;673;48.098;14.422;2023-12-20T10:30:17;4.80;99.90
1359;DHT22;673;48.098;14.422;2023-12-20T10:32:44;4.80;99.90
1359;DHT22;673;48.098;14.422;2023-12-20T10:35:11;4.80;99.90
1359;DHT22;673;48.098;14.422;2023-12-20T10:37:38;4.90;99.90
1359;DHT22;673;48.098;14.422;2023-12-20T10:40:06;5.00;99.90
1359;DHT22;673;48.098;14.422;2023-12-20T10:42:35;5.10;99.90
1359;DHT22;673;48.098;14.422;2023-12-20T10:45:03;5.10;99.90
1359;DHT22;673;48.098;14.422;2023-12-20T10:47:31;5.20;99.90
1359;DHT22;673;48.098;14.422;2023-12-20T10:49:59;5.20;99.90
1359;DHT22;673;48.098;14.422;2023-12-20T10:52:28;5.20;99.90
1359;DHT22;673;48.098;14.422;2023-12-20T10:54:56;5.20;99.90
1359;DHT22;673;48.098;14.422;2023-12-20T10:57:26;5.20;99.90
1359;DHT22;673;48.098;14.422;2023-12-20T10:59:57;5.20;99.90
1359;DHT22;673;48.098;14.422;2023-12-20T11:02:26;5.20;99.90
1359;DHT22;673;48.098;14.422;2023-12-20T11:04:58;5.20;99.90
1359;DHT22;673;48.098;14.422;2023-12-20T11:07:33;5.20;99.90
1359;DHT22;673;48.098;14.422;2023-12-20T11:10:10;5.20;99.90
1359;DHT22;673;48.098;14.422;2023-12-20T11:12:46;5.20;99.90
1359;DHT22;673;48.098;14.422;2023-12-20T11:15:15;5.20;99.90
1359;DHT22;673;48.098;14.422;2023-12-20T11:17:45;5.20;99.90
1359;DHT22;673;48.098;14.422;2023-12-20T11:20:13;5.20;99.90
1359;DHT22;673;48.098;14.422;2023-12-20T11:22:52;5.20;99.90
1359;DHT22;673;48.098;14.422;2023-12-20T11:25:19;5.20;99.90
1359;DHT22;673;48.098;14.422;2023-12-20T11:28:08;5.30;99.90
1359;DHT22;673;48.098;14.422;2023-12-20T11:30:46;5.30;99.90
1359;DHT22;673;48.098;14.422;2023-12-20T11:33:14;5.30;99.90
1359;DHT22;673;48.098;14.422;2023-12-20T11:35:41;5.20;99.90
1359;DHT22;673;48.098;14.422;2023-12-20T11:38:09;5.20;99.90
1359;DHT22;673;48.098;14.422;2023-12-20T11:40:36;5.20;99.90
1359;DHT22;673;48.098;14.422;2023-12-20T11:43:04;5.20;99.90
1359;DHT22;673;48.098;14.422;2023-12-20T11:45:31;5.10;99.90
1359;DHT22;673;48.098;14.422;2023-12-20T11:48:02;5.20;99.90
1359;DHT22;673;48.098;14.422;2023-12-20T11:50:29;5.10;99.90
1359;DHT22;673;48.098;14.422;2023-12-20T11:52:57;5.10;99.90
1359;DHT22;673;48.098;14.422;2023-12-20T11:55:24;5.10;99.90
1359;DHT22;673;48.098;14.422;2023-12-20T11:57:51;5.10;99.90
1359;DHT22;673;48.098;14.422;2023-12-20T12:00:19;5.10;99.90
1359;DHT22;673;48.098;14.422;2023-12-20T12:03:00;5.10;99.90
1359;DHT22;673;48.098;14.422;2023-12-20T12:05:30;5.10;99.90
1359;DHT22;673;48.098;14.422;2023-12-20T12:07:57;5.00;99.90
1359;DHT22;673;48.098;14.422;2023-12-20T12:10:25;5.00;99.90
1359;DHT22;673;48.098;14.422;2023-12-20T12:12:52;5.00;99.90
1359;DHT22;673;48.098;14.422;2023-12-20T12:15:19;5.00;99.90
1359;DHT22;673;48.098;14.422;2023-12-20T12:17:53;5.00;99.90
1359;DHT22;673;48.098;14.422;2023-12-20T12:20:22;4.90;99.90
1359;DHT22;673;48.098;14.422;2023-12-20T12:22:58;4.90;99.90
1359;DHT22;673;48.098;14.422;2023-12-20T12:25:25;4.90;99.90
1359;DHT22;673;48.098;14.422;2023-12-20T12:27:52;4.90;99.90
1359;DHT22;673;48.098;14.422;2023-12-20T12:30:19;4.90;99.90
1359;DHT22;673;48.098;14.422;2023-12-20T12:32:46;5.00;99.90
1359;DHT22;673;48.098;14.422;2023-12-20T12:35:14;5.00;99.90
1359;DHT22;673;48.098;14.422;2023-12-20T12:37:43;5.00;99.90
1359;DHT22;673;48.098;14.422;2023-12-20T12:40:11;5.10;99.90
1359;DHT22;673;48.098;14.422;2023-12-20T12:42:39;5.10;99.90
1359;DHT22;673;48.098;14.422;2023-12-20T12:45:07;5.10;99.90
1359;DHT22;673;48.098;14.422;2023-12-20T12:47:34;5.10;99.90
1359;DHT22;673;48.098;14.422;2023-12-20T12:50:01;5.10;99.90
1359;DHT22;673;48.098;14.422;2023-12-20T12:52:28;5.10;99.90
1359;DHT22;673;48.098;14.422;2023-12-20T12:54:56;5.10;99.90
1359;DHT22;673;48.098;14.422;2023-12-20T12:57:24;5.10;99.90
1359;DHT22;673;48.098;14.422;2023-12-20T12:59:51;5.10;99.90
1359;DHT22;673;48.098;14.422;2023-12-20T13:02:17;5.10;99.90
1359;DHT22;673;48.098;14.422;2023-12-20T13:04:44;5.00;99.90
1359;DHT22;673;48.098;14.422;2023-12-20T13:07:11;5.00;99.90
1359;DHT22;673;48.098;14.422;2023-12-20T13:09:39;5.00;99.90
1359;DHT22;673;48.098;14.422;2023-12-20T13:12:08;5.00;99.90
1359;DHT22;673;48.098;14.422;2023-12-20T13:14:35;4.90;99.90
1359;DHT22;673;48.098;14.422;2023-12-20T13:17:03;4.90;99.90
1359;DHT22;673;48.098;14.422;2023-12-20T13:19:31;4.90;99.90
1359;DHT22;673;48.098;14.422;2023-12-20T13:21:59;4.90;99.90
1359;DHT22;673;48.098;14.422;2023-12-20T13:24:26;4.90;99.90
1359;DHT22;673;48.098;14.422;2023-12-20T13:26:53;4.90;99.90
1359;DHT22;673;48.098;14.422;2023-12-20T13:29:21;4.90;99.90
1359;DHT22;673;48.098;14.422;2023-12-20T13:31:49;5.00;99.90
1359;DHT22;673;48.098;14.422;2023-12-20T13:34:16;5.00;99.90
1359;DHT22;673;48.098;14.422;2023-12-20T13:36:43;5.00;99.90
1359;DHT22;673;48.098;14.422;2023-12-20T13:39:13;5.00;99.90
1359;DHT22;673;48.098;14.422;2023-12-20T13:41:40;5.00;99.90
1359;DHT22;673;48.098;14.422;2023-12-20T13:44:07;5.00;99.90
1359;DHT22;673;48.098;14.422;2023-12-20T13:46:36;5.00;99.90
1359;DHT22;673;48.098;14.422;2023-12-20T13:49:03;4.90;99.90
1359;DHT22;673;48.098;14.422;2023-12-20T13:51:30;4.90;99.90
1359;DHT22;673;48.098;14.422;2023-12-20T13:53:57;5.00;99.90
1359;DHT22;673;48.098;14.422;2023-12-20T13:56:25;5.00;99.90
1359;DHT22;673;48.098;14.422;2023-12-20T13:58:52;5.00;99.90
1359;DHT22;673;48.098;14.422;2023-12-20T14:01:19;5.00;99.90
1359;DHT22;673;48.098;14.422;2023-12-20T14:03:47;5.00;99.90
1359;DHT22;673;48.098;14.422;2023-12-20T14:06:14;5.00;99.90
1359;DHT22;673;48.098;14.422;2023-12-20T14:08:42;4.90;99.90
1359;DHT22;673;48.098;14.422;2023-12-20T14:11:09;4.90;99.90
1359;DHT22;673;48.098;14.422;2023-12-20T14:13:36;4.90;99.90
1359;DHT22;673;48.098;14.422;2023-12-20T14:16:03;5.00;99.90
1359;DHT22;673;48.098;14.422;2023-12-20T14:18:30;5.00;99.90
1359;DHT22;673;48.098;14.422;2023-12-20T14:20:59;5.00;99.90
1359;DHT22;673;48.098;14.422;2023-12-20T14:23:25;5.00;99.90
1359;DHT22;673;48.098;14.422;2023-12-20T14:25:53;5.00;99.90
1359;DHT22;673;48.098;14.422;2023-12-20T14:28:21;5.00;99.90
1359;DHT22;673;48.098;14.422;2023-12-20T14:30:48;5.00;99.90
1359;DHT22;673;48.098;14.422;2023-12-20T14:33:15;5.10;99.90
1359;DHT22;673;48.098;14.422;2023-12-20T14:35:42;5.10;99.90
1359;DHT22;673;48.098;14.422;2023-12-20T14:38:11;5.10;99.90
1359;DHT22;673;48.098;14.422;2023-12-20T14:40:40;5.10;99.90
1359;DHT22;673;48.098;14.422;2023-12-20T14:43:07;5.10;99.90
1359;DHT22;673;48.098;14.422;2023-12-20T14:45:34;5.10;99.90
1359;DHT22;673;48.098;14.422;2023-12-20T14:48:01;5.00;99.90
1359;DHT22;673;48.098;14.422;2023-12-20T14:50:28;5.10;99.90
1359;DHT22;673;48.098;14.422;2023-12-20T14:52:55;5.10;99.90
1359;DHT22;673;48.098;14.422;2023-12-20T14:55:24;5.00;99.90
1359;DHT22;673;48.098;14.422;2023-12-20T14:57:53;5.10;99.90
1359;DHT22;673;48.098;14.422;2023-12-20T15:00:20;5.00;99.90
1359;DHT22;673;48.098;14.422;2023-12-20T15:02:48;5.10;99.90
1359;DHT22;673;48.098;14.422;2023-12-20T15:05:15;5.10;99.90
1359;DHT22;673;48.098;14.422;2023-12-20T15:07:43;5.10;99.90
1359;DHT22;673;48.098;14.422;2023-12-20T15:10:10;5.00;99.90
1359;DHT22;673;48.098;14.422;2023-12-20T15:12:38;5.00;99.90
1359;DHT22;673;48.098;14.422;2023-12-20T15:15:06;5.10;99.90
1359;DHT22;673;48.098;14.422;2023-12-20T15:17:35;5.10;99.90
1359;DHT22;673;48.098;14.422;2023-12-20T15:20:02;5.00;99.90
1359;DHT22;673;48.098;14.422;2023-12-20T15:22:30;5.10;99.90
1359;DHT22;673;48.098;14.422;2023-12-20T15:24:59;5.10;99.90
1359;DHT22;673;48.098;14.422;2023-12-20T15:27:27;5.10;99.90
1359;DHT22;673;48.098;14.422;2023-12-20T15:29:55;5.00;99.90
1359;DHT22;673;48.098;14.422;2023-12-20T15:32:22;5.00;99.90
1359;DHT22;673;48.098;14.422;2023-12-20T15:34:49;4.90;99.90
1359;DHT22;673;48.098;14.422;2023-12-20T15:37:18;4.90;99.90
1359;DHT22;673;48.098;14.422;2023-12-20T15:39:44;4.90;99.90
1359;DHT22;673;48.098;14.422;2023-12-20T15:42:11;4.70;99.90
1359;DHT22;673;48.098;14.422;2023-12-20T15:44:38;4.60;99.90
1359;DHT22;673;48.098;14.422;2023-12-20T15:47:07;4.60;99.90
1359;DHT22;673;48.098;14.422;2023-12-20T15:49:34;4.50;99.90
1359;DHT22;673;48.098;14.422;2023-12-20T15:52:01;4.50;99.90
1359;DHT22;673;48.098;14.422;2023-12-20T15:54:28;4.50;99.90
1359;DHT22;673;48.098;14.422;2023-12-20T15:56:55;4.40;99.90
1359;DHT22;673;48.098;14.422;2023-12-20T15:59:23;4.40;99.90
1359;DHT22;673;48.098;14.422;2023-12-20T16:01:49;4.40;99.90
1359;DHT22;673;48.098;14.422;2023-12-20T16:04:18;4.40;99.90
1359;DHT22;673;48.098;14.422;2023-12-20T16:06:45;4.40;99.90
1359;DHT22;673;48.098;14.422;2023-12-20T16:09:12;4.40;99.90
1359;DHT22;673;48.098;14.422;2023-12-20T16:11:39;4.40;99.90
1359;DHT22;673;48.098;14.422;2023-12-20T16:14:06;4.50;99.90
1359;DHT22;673;48.098;14.422;2023-12-20T16:16:34;4.50;99.90
1359;DHT22;673;48.098;14.422;2023-12-20T16:19:02;4.40;99.90